Terminal Aerodrome Forecast
Issued by NWS

Home | Current Version | Previous Version | Text Only | Print | Product List | Glossary On
Versions: 1 2 3 4 5 6 7 8 9 10 11 12 13 14 15 16 17 18 19 20
000
FTUS43 KBIS 231123
TAFDIK
TAF
KDIK 231123Z 2312/2412 VRB03KT P6SM VCSH OVC080
     FM231700 36006KT P6SM VCSH OVC045
     FM232300 33007KT P6SM OVC120
     FM240400 31005KT P6SM SCT110=

USA.gov is the U.S. government's official web portal to all federal, state and local government web resources and services.